Time;durP1;ratioP1;P1;durP2;ratioP2;P2;SDS_P1;SDS_P2;PMS_P1;PMS_P2;Temp;Humidity;BMP_temperature;BMP_pressure;BME280_temperature;BME280_humidity;BME280_pressure;Samples;Min_cycle;Max_cycle;Signal;HPM_P1;HPM_P2
2022/06/05 00:01:13;;;;;;;8.67;7.57;;;12.70;99.90;;;;;;5056922;28;20536;-46
2022/06/05 00:03:50;;;;;;;9.07;7.40;;;12.60;99.90;;;;;;5045999;28;20919;-48
2022/06/05 00:06:23;;;;;;;9.50;6.83;;;12.60;99.90;;;;;;5050926;28;20759;-47
2022/06/05 00:09:03;;;;;;;7.80;6.83;;;12.60;99.90;;;;;;5049334;28;20227;-47
2022/06/05 00:11:41;;;;;;;8.53;7.17;;;12.70;99.90;;;;;;5051435;28;20926;-48
2022/06/05 00:14:08;;;;;;;10.07;7.97;;;12.60;99.90;;;;;;5045643;28;20199;-46
2022/06/05 00:16:36;;;;;;;8.83;7.87;;;12.50;99.90;;;;;;5045838;28;20234;-46
2022/06/05 00:19:04;;;;;;;8.87;7.73;;;12.50;99.90;;;;;;5047014;28;20227;-48
2022/06/05 00:21:31;;;;;;;8.37;7.57;;;12.50;99.90;;;;;;5055768;28;20202;-50
2022/06/05 00:23:57;;;;;;;9.40;7.43;;;12.50;99.90;;;;;;5048511;28;20199;-46
2022/06/05 00:26:29;;;;;;;8.17;7.27;;;12.40;99.90;;;;;;5045777;28;20210;-46
2022/06/05 00:29:04;;;;;;;8.33;7.33;;;12.40;99.90;;;;;;5042241;28;20215;-46
2022/06/05 00:31:38;;;;;;;8.13;7.37;;;12.40;99.90;;;;;;5049503;28;20229;-47
2022/06/05 00:34:05;;;;;;;10.67;8.43;;;12.30;99.90;;;;;;5054924;28;20195;-49
2022/06/05 00:36:55;;;;;;;10.63;8.47;;;12.20;99.90;;;;;;5049785;28;20248;-49
2022/06/05 00:39:29;;;;;;;8.27;7.47;;;12.10;99.90;;;;;;5039085;28;20246;-48
2022/06/05 00:41:59;;;;;;;9.93;8.27;;;12.10;99.90;;;;;;5043582;28;20707;-47
2022/06/05 00:44:31;;;;;;;8.93;8.07;;;12.10;99.90;;;;;;5029854;28;20302;-48
2022/06/05 00:47:00;;;;;;;11.13;9.00;;;12.10;99.90;;;;;;5050639;28;20226;-48
2022/06/05 00:49:33;;;;;;;10.13;8.27;;;12.00;99.90;;;;;;5046018;28;20219;-49
2022/06/05 00:52:00;;;;;;;10.13;8.40;;;12.00;99.90;;;;;;5056832;28;20309;-47
2022/06/05 00:54:27;;;;;;;10.63;8.60;;;12.00;99.90;;;;;;5043940;28;20195;-47
2022/06/05 00:56:54;;;;;;;10.40;8.97;;;12.00;99.90;;;;;;5043798;28;20210;-46
2022/06/05 00:59:21;;;;;;;9.33;7.60;;;12.00;99.90;;;;;;5058946;28;20230;-48
2022/06/05 01:01:49;;;;;;;8.53;7.60;;;12.00;99.90;;;;;;5047493;28;20974;-46
2022/06/05 01:04:19;;;;;;;9.97;8.90;;;11.90;99.90;;;;;;5054504;28;20211;-48
2022/06/05 01:06:46;;;;;;;9.97;7.87;;;11.90;99.90;;;;;;5045086;28;20214;-46
2022/06/05 01:09:13;;;;;;;9.93;8.90;;;11.80;99.90;;;;;;5060147;28;20238;-46
2022/06/05 01:11:51;;;;;;;9.70;8.67;;;11.90;99.90;;;;;;5054081;28;20198;-47
2022/06/05 01:14:26;;;;;;;11.07;9.17;;;11.80;99.90;;;;;;5041247;28;20195;-50
2022/06/05 01:17:00;;;;;;;10.97;8.27;;;11.70;99.90;;;;;;5037329;28;20856;-46
2022/06/05 01:19:42;;;;;;;13.00;8.63;;;11.80;99.90;;;;;;5046361;28;20245;-49
2022/06/05 01:22:32;;;;;;;9.93;8.43;;;11.80;99.90;;;;;;5043273;28;20223;-46
2022/06/05 01:25:16;;;;;;;14.37;9.13;;;11.70;99.90;;;;;;5046276;28;20226;-49
2022/06/05 01:27:51;;;;;;;10.57;9.10;;;11.60;99.90;;;;;;5040707;28;20191;-46
2022/06/05 01:30:21;;;;;;;11.47;9.03;;;11.60;99.90;;;;;;5040862;28;20214;-46
2022/06/05 01:32:55;;;;;;;11.17;8.03;;;11.60;99.90;;;;;;5033241;28;20210;-46
2022/06/05 01:35:27;;;;;;;13.80;9.47;;;11.60;99.90;;;;;;5057555;28;20222;-48
2022/06/05 01:37:59;;;;;;;10.97;7.80;;;11.60;99.90;;;;;;5044976;28;20196;-46
2022/06/05 01:40:30;;;;;;;14.27;8.70;;;11.60;99.90;;;;;;5047450;28;20219;-49
2022/06/05 01:43:03;;;;;;;10.77;9.40;;;11.60;99.90;;;;;;5062718;28;20198;-46
2022/06/05 01:45:35;;;;;;;13.37;9.40;;;11.60;99.90;;;;;;5048303;28;20349;-49
2022/06/05 01:48:06;;;;;;;13.20;10.00;;;11.50;99.90;;;;;;5039105;28;20202;-49
2022/06/05 01:50:38;;;;;;;12.70;10.20;;;11.40;99.90;;;;;;5047260;28;20234;-50
2022/06/05 01:53:09;;;;;;;13.57;9.70;;;11.40;99.90;;;;;;5050303;28;20257;-50
2022/06/05 01:55:42;;;;;;;13.73;8.97;;;11.40;99.90;;;;;;5044287;28;20207;-47
2022/06/05 01:58:14;;;;;;;14.90;9.93;;;11.40;99.90;;;;;;5049079;28;20664;-46
2022/06/05 02:00:42;;;;;;;14.60;10.43;;;11.40;99.90;;;;;;5047158;28;20202;-47
2022/06/05 02:03:13;;;;;;;13.43;9.90;;;11.40;99.90;;;;;;5039457;28;20262;-47
2022/06/05 02:05:44;;;;;;;12.93;9.70;;;11.40;99.90;;;;;;5056114;28;20206;-48
2022/06/05 02:08:17;;;;;;;11.33;8.70;;;11.40;99.90;;;;;;5049100;28;20200;-51
2022/06/05 02:10:48;;;;;;;12.60;9.83;;;11.30;99.90;;;;;;5052307;28;20198;-48
2022/06/05 02:13:19;;;;;;;14.87;10.60;;;11.30;99.90;;;;;;5051147;28;20195;-49
2022/06/05 02:15:47;;;;;;;15.50;11.13;;;11.30;99.90;;;;;;5044094;28;20900;-47
2022/06/05 02:18:14;;;;;;;11.07;9.80;;;11.20;99.90;;;;;;5040830;28;20199;-50
2022/06/05 02:20:42;;;;;;;14.87;10.17;;;11.20;99.90;;;;;;5051077;28;20306;-47
2022/06/05 02:23:13;;;;;;;14.30;10.63;;;11.20;99.90;;;;;;5048234;28;20207;-46
2022/06/05 02:25:40;;;;;;;11.47;10.27;;;11.20;99.90;;;;;;5045903;28;20226;-48
2022/06/05 02:28:12;;;;;;;13.10;10.87;;;11.20;99.90;;;;;;5046517;28;20203;-46
2022/06/05 02:30:50;;;;;;;16.33;10.37;;;11.20;99.90;;;;;;5047348;28;20227;-46
2022/06/05 02:33:27;;;;;;;15.97;10.97;;;11.20;99.90;;;;;;5056775;28;20202;-50
2022/06/05 02:36:01;;;;;;;11.80;10.20;;;11.10;99.90;;;;;;5051009;28;20203;-47
2022/06/05 02:38:44;;;;;;;15.53;10.90;;;11.10;99.90;;;;;;5060138;28;20685;-50
2022/06/05 02:41:19;;;;;;;16.60;10.90;;;11.10;99.90;;;;;;5062134;28;20197;-52
2022/06/05 02:46:42;;;;;;;14.97;10.60;;;11.00;99.90;;;;;;5041776;28;20215;-47
2022/06/05 02:49:17;;;;;;;13.43;10.57;;;11.10;99.90;;;;;;5045442;28;20273;-49
2022/06/05 02:51:45;;;;;;;14.80;10.80;;;11.00;99.90;;;;;;5058180;28;20524;-48
2022/06/05 02:54:21;;;;;;;12.87;10.63;;;11.00;99.90;;;;;;5047659;28;20229;-47
2022/06/05 02:56:48;;;;;;;15.20;11.13;;;11.00;99.90;;;;;;5044560;28;20230;-47
2022/06/05 02:59:15;;;;;;;17.00;11.30;;;10.90;99.90;;;;;;5044597;28;20222;-50
2022/06/05 03:04:28;;;;;;;14.90;10.33;;;10.90;99.90;;;;;;5048709;28;20218;-47
2022/06/05 03:06:56;;;;;;;12.03;10.07;;;10.90;99.90;;;;;;5040976;28;20293;-46
2022/06/05 03:09:23;;;;;;;13.53;10.13;;;10.90;99.90;;;;;;5048993;28;20576;-49
2022/06/05 03:11:49;;;;;;;12.90;10.17;;;10.90;99.90;;;;;;5058884;28;20229;-52
2022/06/05 03:14:16;;;;;;;13.13;9.47;;;10.90;99.90;;;;;;5051058;28;20575;-48
2022/06/05 03:16:45;;;;;;;13.73;10.37;;;10.90;99.90;;;;;;5057998;28;20278;-50
2022/06/05 03:19:12;;;;;;;16.30;10.60;;;10.90;99.90;;;;;;5059567;28;20218;-47
2022/06/05 03:21:40;;;;;;;11.30;10.03;;;10.90;99.90;;;;;;5037055;28;20337;-49
2022/06/05 03:24:29;;;;;;;11.67;9.90;;;10.90;99.90;;;;;;5055216;28;20218;-51
2022/06/05 03:26:56;;;;;;;12.70;10.23;;;10.90;99.90;;;;;;5039269;28;20599;-48
2022/06/05 03:29:22;;;;;;;11.80;10.00;;;10.90;99.90;;;;;;5055695;28;20245;-46
2022/06/05 03:31:50;;;;;;;13.33;10.27;;;10.90;99.90;;;;;;5049834;28;20203;-51
2022/06/05 03:34:18;;;;;;;13.27;10.13;;;10.80;99.90;;;;;;5049229;28;20215;-47
2022/06/05 03:36:46;;;;;;;14.07;9.93;;;10.80;99.90;;;;;;5036870;28;20818;-47
2022/06/05 03:39:13;;;;;;;16.00;10.37;;;10.90;99.90;;;;;;5050038;28;20246;-46
2022/06/05 03:41:40;;;;;;;13.90;10.47;;;10.90;99.90;;;;;;5041983;28;20211;-50
2022/06/05 03:44:06;;;;;;;13.97;10.10;;;10.80;99.90;;;;;;5051422;28;20203;-49
2022/06/05 03:46:36;;;;;;;13.07;9.83;;;10.80;99.90;;;;;;5046215;28;20318;-47
2022/06/05 03:49:06;;;;;;;14.17;9.97;;;10.80;99.90;;;;;;5046216;28;20913;-46
2022/06/05 03:51:33;;;;;;;11.73;9.67;;;10.80;99.90;;;;;;5043551;28;20201;-48
2022/06/05 03:54:00;;;;;;;14.03;10.07;;;10.80;99.90;;;;;;5042492;28;20199;-49
2022/06/05 03:56:28;;;;;;;14.13;10.43;;;10.90;99.90;;;;;;5050339;28;20207;-47
2022/06/05 03:58:56;;;;;;;14.33;10.30;;;10.90;99.90;;;;;;5046319;28;20214;-47
2022/06/05 04:01:25;;;;;;;14.40;10.17;;;10.80;99.90;;;;;;5043185;28;20300;-48
2022/06/05 04:03:52;;;;;;;11.23;10.00;;;10.80;99.90;;;;;;5042925;28;20257;-48
2022/06/05 04:06:22;;;;;;;11.43;9.60;;;;;;;;;;5053072;28;20226;-48
2022/06/05 04:08:50;;;;;;;13.07;10.57;;;10.90;99.90;;;;;;5035400;28;20249;-48
2022/06/05 04:11:19;;;;;;;11.90;10.33;;;10.90;99.90;;;;;;5053210;28;20225;-50
2022/06/05 04:13:45;;;;;;;16.23;10.73;;;10.90;99.90;;;;;;5050044;28;20202;-48
2022/06/05 04:16:13;;;;;;;14.40;10.40;;;10.90;99.90;;;;;;5049762;28;20202;-48
2022/06/05 04:18:40;;;;;;;12.27;9.87;;;10.90;99.90;;;;;;5056762;28;20210;-46
2022/06/05 04:21:08;;;;;;;16.70;10.10;;;11.00;99.90;;;;;;5049442;28;20576;-46
2022/06/05 04:23:37;;;;;;;13.53;10.00;;;11.00;99.90;;;;;;5049478;28;20210;-49
2022/06/05 04:26:06;;;;;;;11.73;9.87;;;11.00;99.90;;;;;;5041936;28;20219;-48
2022/06/05 04:28:33;;;;;;;14.33;10.30;;;11.00;99.90;;;;;;5054977;28;20205;-47
2022/06/05 04:30:59;;;;;;;11.30;9.37;;;11.10;99.90;;;;;;5047754;28;20199;-46
2022/06/05 04:33:26;;;;;;;14.30;10.37;;;11.10;99.90;;;;;;5048911;28;20616;-46
2022/06/05 04:35:53;;;;;;;13.77;10.17;;;11.20;99.90;;;;;;5051215;28;20195;-46
2022/06/05 04:38:20;;;;;;;11.90;10.53;;;11.20;99.90;;;;;;5049194;28;20206;-48
2022/06/05 04:40:48;;;;;;;13.83;10.27;;;11.20;99.90;;;;;;5033814;28;20226;-50
2022/06/05 04:43:15;;;;;;;15.17;11.07;;;11.30;99.90;;;;;;5053157;28;20199;-49
2022/06/05 04:45:42;;;;;;;13.20;10.00;;;11.30;99.90;;;;;;5051925;28;20222;-51
2022/06/05 04:48:10;;;;;;;14.20;10.47;;;11.40;99.90;;;;;;5055845;28;20667;-46
2022/06/05 04:50:37;;;;;;;13.63;10.37;;;11.40;99.90;;;;;;5058368;28;20671;-47
2022/06/05 04:53:04;;;;;;;11.63;9.90;;;11.50;99.90;;;;;;5054475;28;20198;-47
2022/06/05 04:55:31;;;;;;;13.77;10.67;;;11.50;99.90;;;;;;5045635;28;20203;-52
2022/06/05 04:57:59;;;;;;;12.30;10.20;;;11.60;99.90;;;;;;5050717;28;20955;-49
2022/06/05 05:00:26;;;;;;;13.87;10.50;;;11.60;99.90;;;;;;5054848;28;20667;-48
2022/06/05 05:02:54;;;;;;;13.33;10.40;;;11.70;99.90;;;;;;5048531;28;20198;-49
2022/06/05 05:05:21;;;;;;;14.13;10.80;;;11.80;99.90;;;;;;5053897;28;20281;-47
2022/06/05 05:07:47;;;;;;;14.70;11.10;;;11.80;99.90;;;;;;5053447;28;20915;-47
2022/06/05 05:10:14;;;;;;;11.60;9.87;;;11.90;99.90;;;;;;5047760;28;20227;-47
2022/06/05 05:12:41;;;;;;;11.73;9.63;;;12.00;99.90;;;;;;5041073;28;20218;-53
2022/06/05 05:15:11;;;;;;;12.70;9.87;;;12.10;99.90;;;;;;5048584;28;20229;-48
2022/06/05 05:17:38;;;;;;;15.13;11.03;;;12.20;99.90;;;;;;5051731;28;20197;-50
2022/06/05 05:20:06;;;;;;;14.77;9.60;;;12.30;99.90;;;;;;5050886;28;20966;-46
2022/06/05 05:22:37;;;;;;;13.13;9.97;;;12.40;99.90;;;;;;5040365;28;20203;-51
2022/06/05 05:25:06;;;;;;;12.30;10.27;;;12.50;99.90;;;;;;5041478;28;20195;-49
2022/06/05 05:27:34;;;;;;;11.83;9.43;;;12.60;99.90;;;;;;5046325;28;20217;-52
2022/06/05 05:30:02;;;;;;;10.87;9.77;;;12.70;99.90;;;;;;5055677;28;20202;-48
2022/06/05 05:32:30;;;;;;;11.67;9.93;;;12.80;99.90;;;;;;5047280;28;20203;-52
2022/06/05 05:34:57;;;;;;;14.13;10.37;;;12.90;99.90;;;;;;5045696;28;20278;-49
2022/06/05 05:37:24;;;;;;;12.80;9.87;;;13.00;99.90;;;;;;5054325;28;20614;-48
2022/06/05 05:42:35;;;;;;;12.27;11.07;;;13.20;99.90;;;;;;5040856;28;20563;-49
2022/06/05 05:45:05;;;;;;;11.83;10.33;;;13.60;99.90;;;;;;5052636;28;20423;-48
2022/06/05 05:47:34;;;;;;;10.50;9.45;;;13.70;99.90;;;;;;5058925;28;20473;-51
2022/06/05 05:50:06;;;;;;;10.77;9.67;;;14.00;99.90;;;;;;5048308;28;20432;-50
2022/06/05 05:52:33;;;;;;;10.30;9.20;;;14.20;99.90;;;;;;5044677;28;20423;-49
2022/06/05 05:55:01;;;;;;;10.40;9.38;;;14.50;99.90;;;;;;5042889;28;20461;-48
2022/06/05 05:57:28;;;;;;;10.85;9.75;;;14.50;99.90;;;;;;5048306;28;20433;-50
2022/06/05 05:59:55;;;;;;;10.40;8.65;;;14.60;99.90;;;;;;5045259;28;20462;-47
2022/06/05 06:02:23;;;;;;;9.55;8.65;;;14.70;99.90;;;;;;5055533;28;20950;-49
2022/06/05 06:04:53;;;;;;;8.27;7.27;;;14.80;99.90;;;;;;5044008;28;20218;-47
2022/06/05 06:07:20;;;;;;;7.57;6.87;;;14.80;99.90;;;;;;5058176;28;20236;-48
2022/06/05 06:09:48;;;;;;;8.82;7.93;;;14.70;99.90;;;;;;5042191;28;21018;-47
2022/06/05 06:12:15;;;;;;;9.80;7.17;;;14.90;99.90;;;;;;5047191;28;20232;-46
2022/06/05 06:14:42;;;;;;;7.53;6.80;;;14.90;99.90;;;;;;5040471;28;20813;-48
2022/06/05 06:17:09;;;;;;;8.73;6.77;;;14.90;99.90;;;;;;5043746;28;20195;-47
2022/06/05 06:19:36;;;;;;;7.00;6.30;;;14.90;99.90;;;;;;5044142;28;20355;-46
2022/06/05 06:22:05;;;;;;;7.10;5.80;;;14.90;99.90;;;;;;5046024;28;20199;-51
2022/06/05 06:24:32;;;;;;;8.53;6.63;;;15.00;99.90;;;;;;5042598;28;20697;-47
2022/06/05 06:26:59;;;;;;;6.27;5.37;;;15.10;99.90;;;;;;5046458;28;20337;-46
2022/06/05 06:29:26;;;;;;;5.33;4.93;;;15.20;99.90;;;;;;5033614;28;20226;-46
2022/06/05 06:31:53;;;;;;;6.03;5.33;;;15.30;99.90;;;;;;5054703;28;20596;-48
2022/06/05 06:34:19;;;;;;;5.40;4.90;;;15.40;99.90;;;;;;5049902;28;20199;-48
2022/06/05 06:36:46;;;;;;;5.27;4.87;;;15.50;99.90;;;;;;5055931;28;20651;-47
2022/06/05 06:39:15;;;;;;;6.37;4.47;;;15.50;99.90;;;;;;5052063;28;20219;-52
2022/06/05 06:41:41;;;;;;;5.37;4.60;;;15.60;99.90;;;;;;5045091;28;20191;-46
2022/06/05 06:44:08;;;;;;;4.83;4.43;;;15.70;99.90;;;;;;5038139;28;20199;-49
2022/06/05 06:46:36;;;;;;;4.87;4.47;;;15.80;99.90;;;;;;5052729;28;20280;-46
2022/06/05 06:49:03;;;;;;;4.80;4.40;;;15.80;99.90;;;;;;5049828;28;20223;-48
2022/06/05 06:51:30;;;;;;;4.30;4.00;;;15.90;99.90;;;;;;5042397;28;20951;-48
2022/06/05 06:53:57;;;;;;;4.13;3.83;;;16.00;99.90;;;;;;5045820;28;20199;-46
2022/06/05 06:56:28;;;;;;;5.57;4.73;;;16.10;99.90;;;;;;5041681;28;20210;-48
2022/06/05 06:58:56;;;;;;;4.17;3.77;;;16.20;99.90;;;;;;5045919;28;20580;-49
2022/06/05 07:01:23;;;;;;;5.47;3.87;;;16.30;99.90;;;;;;5037790;28;20261;-48
2022/06/05 07:03:50;;;;;;;4.20;3.87;;;16.40;99.90;;;;;;5058657;28;20551;-50
2022/06/05 07:06:17;;;;;;;4.13;3.73;;;16.40;99.90;;;;;;5053864;28;20220;-51
2022/06/05 07:08:45;;;;;;;4.87;3.80;;;16.40;99.90;;;;;;5045697;28;20691;-47
2022/06/05 07:11:14;;;;;;;4.20;3.90;;;16.50;99.90;;;;;;5043605;28;20668;-48
2022/06/05 07:13:42;;;;;;;4.33;3.93;;;16.70;99.90;;;;;;5044028;28;20187;-51
2022/06/05 07:16:11;;;;;;;4.13;3.73;;;16.80;99.90;;;;;;5038864;28;20256;-46
2022/06/05 07:18:39;;;;;;;4.87;3.80;;;16.90;99.90;;;;;;5059875;28;20187;-46
2022/06/05 07:21:11;;;;;;;4.60;3.70;;;17.00;99.90;;;;;;5064158;28;20210;-50
2022/06/05 07:23:38;;;;;;;3.83;3.13;;;17.00;99.90;;;;;;5042588;28;20188;-48
2022/06/05 07:26:08;;;;;;;3.77;3.57;;;17.10;99.90;;;;;;5044348;28;20192;-47
2022/06/05 07:28:36;;;;;;;3.77;3.43;;;;;;;;;;5042356;28;20206;-48
2022/06/05 07:31:06;;;;;;;4.07;3.70;;;17.40;99.90;;;;;;5046770;28;20209;-50
2022/06/05 07:33:34;;;;;;;3.73;3.43;;;17.30;99.90;;;;;;5046344;28;20235;-47
2022/06/05 07:36:03;;;;;;;4.13;3.83;;;17.40;99.90;;;;;;5051045;28;20225;-46
2022/06/05 07:38:30;;;;;;;4.07;3.67;;;17.40;99.90;;;;;;5048145;28;20222;-47
2022/06/05 07:40:58;;;;;;;3.70;3.40;;;17.50;99.90;;;;;;5044990;28;20195;-48
2022/06/05 07:43:24;;;;;;;5.77;3.43;;;17.70;99.90;;;;;;5040795;28;20207;-46
2022/06/05 07:45:51;;;;;;;4.07;3.67;;;17.80;99.90;;;;;;5044680;28;20248;-49
2022/06/05 07:48:20;;;;;;;4.03;3.73;;;17.80;99.90;;;;;;5034811;28;20219;-47
2022/06/05 07:56:31;;;;;;;3.60;3.30;;;18.00;99.90;;;;;;5013177;28;20285;-46
2022/06/05 07:58:58;;;;;;;4.70;3.70;;;18.20;99.90;;;;;;5021844;28;20227;-48
2022/06/05 08:01:25;;;;;;;3.63;3.33;;;18.30;99.90;;;;;;5027929;28;20203;-47
2022/06/05 08:03:53;;;;;;;4.70;3.27;;;18.30;99.90;;;;;;5047199;28;20226;-46
2022/06/05 08:06:20;;;;;;;3.60;3.30;;;18.30;99.90;;;;;;5050899;28;20385;-48
2022/06/05 08:08:47;;;;;;;5.87;4.00;;;18.40;99.90;;;;;;5054541;28;20710;-46
2022/06/05 08:11:14;;;;;;;3.37;3.17;;;18.40;99.90;;;;;;5042099;28;20199;-47
2022/06/05 08:13:41;;;;;;;3.10;2.80;;;18.60;99.90;;;;;;5042712;28;20691;-44
2022/06/05 08:16:08;;;;;;;4.03;2.70;;;18.70;99.90;;;;;;5043306;28;20210;-48
2022/06/05 08:18:35;;;;;;;2.73;2.60;;;18.80;99.90;;;;;;5039593;28;20187;-45
2022/06/05 08:21:04;;;;;;;3.20;2.90;;;18.90;99.90;;;;;;5050594;28;20194;-47
2022/06/05 08:23:31;;;;;;;4.37;2.83;;;19.00;99.90;;;;;;5040442;28;20198;-49
2022/06/05 08:25:58;;;;;;;3.30;3.00;;;19.00;99.90;;;;;;5044088;28;20199;-45
2022/06/05 08:28:25;;;;;;;4.33;3.00;;;19.10;99.90;;;;;;5039870;28;20223;-46
2022/06/05 08:30:52;;;;;;;2.70;2.50;;;19.20;99.90;;;;;;5044245;28;20199;-44
2022/06/05 08:33:19;;;;;;;2.70;2.50;;;19.30;99.90;;;;;;5030906;28;20297;-49
2022/06/05 08:35:48;;;;;;;2.63;2.43;;;19.40;99.90;;;;;;5061277;28;20202;-45
2022/06/05 08:41:30;;;;;;;3.00;2.80;;;19.60;99.90;;;;;;5044065;28;20214;-50
2022/06/05 08:44:05;;;;;;;2.83;2.63;;;19.80;99.90;;;;;;5057409;28;20199;-47
2022/06/05 08:46:38;;;;;;;3.50;3.20;;;19.90;99.60;;;;;;5060037;28;20198;-48
2022/06/05 08:49:10;;;;;;;2.97;2.57;;;20.00;99.20;;;;;;5049407;28;20219;-46
2022/06/05 08:51:47;;;;;;;2.90;2.70;;;20.10;99.50;;;;;;5043281;28;20194;-48
2022/06/05 08:54:19;;;;;;;3.70;3.03;;;20.10;99.70;;;;;;5041517;28;20203;-46
2022/06/05 08:56:49;;;;;;;3.00;2.70;;;20.20;98.80;;;;;;5043454;28;20203;-50
2022/06/05 08:59:21;;;;;;;2.70;2.53;;;20.30;98.60;;;;;;5041153;28;20223;-47
2022/06/05 09:01:51;;;;;;;2.80;2.60;;;20.30;98.50;;;;;;5044099;28;20211;-50
2022/06/05 09:04:39;;;;;;;2.97;2.77;;;20.40;97.80;;;;;;5032809;28;20549;-49
2022/06/05 09:07:13;;;;;;;3.03;2.83;;;20.50;97.00;;;;;;5053981;28;20233;-46
2022/06/05 09:09:46;;;;;;;4.30;2.90;;;20.50;97.40;;;;;;5058342;28;20218;-51
2022/06/05 09:12:23;;;;;;;3.37;3.07;;;20.60;97.00;;;;;;5060887;28;20198;-49
2022/06/05 09:14:57;;;;;;;3.20;2.93;;;20.70;96.60;;;;;;5062657;28;20190;-45
2022/06/05 09:17:26;;;;;;;4.20;3.30;;;20.70;96.60;;;;;;5039354;28;20192;-47
2022/06/05 09:19:56;;;;;;;4.60;2.97;;;20.80;96.60;;;;;;5036807;28;20306;-46
2022/06/05 09:22:33;;;;;;;2.80;2.60;;;20.80;96.30;;;;;;5051110;28;20195;-45
2022/06/05 09:25:30;;;;;;;4.00;3.67;;;21.00;96.10;;;;;;5042977;28;20614;-48
2022/06/05 09:28:14;;;;;;;4.00;3.00;;;21.00;95.90;;;;;;5042443;28;20239;-48
2022/06/05 09:30:49;;;;;;;3.47;3.17;;;21.10;95.60;;;;;;5056141;28;20291;-50
2022/06/05 09:33:19;;;;;;;3.13;2.90;;;21.20;95.40;;;;;;5059971;28;20286;-48
2022/06/05 09:35:49;;;;;;;4.10;3.50;;;21.30;95.70;;;;;;5045960;28;20755;-47
2022/06/05 09:38:23;;;;;;;3.67;3.37;;;21.40;95.80;;;;;;5046491;28;20191;-47
2022/06/05 09:41:01;;;;;;;4.10;3.70;;;21.30;96.00;;;;;;5043402;28;20278;-45
2022/06/05 09:43:55;;;;;;;3.63;3.33;;;21.30;96.60;;;;;;5039055;28;20194;-52
2022/06/05 09:46:47;;;;;;;2.97;2.77;;;21.30;96.60;;;;;;5054673;28;20206;-50
2022/06/05 09:49:19;;;;;;;3.90;3.60;;;21.40;96.00;;;;;;5060196;28;20218;-49
2022/06/05 09:51:46;;;;;;;3.83;3.43;;;21.50;96.30;;;;;;5043396;28;20206;-46
2022/06/05 09:54:20;;;;;;;3.47;3.17;;;21.50;96.10;;;;;;5049242;28;20200;-47
2022/06/05 09:59:48;;;;;;;3.63;3.20;;;21.60;95.70;;;;;;5038181;28;20234;-50
2022/06/05 10:02:19;;;;;;;3.60;3.30;;;21.60;95.70;;;;;;5060110;28;20569;-52
2022/06/05 10:04:47;;;;;;;3.57;3.37;;;21.70;95.30;;;;;;5061620;28;20198;-45
2022/06/05 10:07:21;;;;;;;3.10;2.90;;;21.80;95.20;;;;;;5040715;28;20691;-49
2022/06/05 10:09:49;;;;;;;3.20;3.00;;;21.90;94.30;;;;;;5055454;28;20214;-47
2022/06/05 10:12:24;;;;;;;3.00;2.80;;;22.00;94.90;;;;;;5042340;28;20281;-46
2022/06/05 10:14:54;;;;;;;2.67;2.57;;;22.00;94.20;;;;;;5060140;28;20208;-48
2022/06/05 10:17:48;;;;;;;2.83;2.63;;;22.00;93.80;;;;;;5062154;28;20202;-45
2022/06/05 10:20:46;;;;;;;3.70;3.40;;;22.00;94.30;;;;;;5063294;28;20225;-49
2022/06/05 10:23:35;;;;;;;2.73;2.53;;;22.00;93.40;;;;;;5053227;28;20211;-49
2022/06/05 10:26:15;;;;;;;3.67;2.70;;;21.90;94.50;;;;;;5050348;28;20231;-47
2022/06/05 10:28:45;;;;;;;2.97;2.70;;;21.80;94.80;;;;;;5058267;28;20229;-51
2022/06/05 10:31:15;;;;;;;3.13;2.93;;;21.80;94.80;;;;;;5063673;28;20199;-46
2022/06/05 10:33:49;;;;;;;2.70;2.50;;;21.80;94.90;;;;;;5063846;28;20202;-45
2022/06/05 10:36:19;;;;;;;2.87;2.40;;;22.00;94.90;;;;;;5055030;28;20195;-47
2022/06/05 10:38:55;;;;;;;2.50;2.30;;;22.10;94.40;;;;;;5043618;28;20234;-48
2022/06/05 10:41:32;;;;;;;2.40;2.30;;;22.20;93.80;;;;;;5048829;28;20558;-48
2022/06/05 10:44:18;;;;;;;2.45;2.28;;;22.20;93.60;;;;;;5045874;28;20206;-47
2022/06/05 10:47:00;;;;;;;2.60;2.43;;;22.10;93.70;;;;;;5059043;28;20353;-50
2022/06/05 10:49:33;;;;;;;2.30;2.20;;;22.20;94.00;;;;;;5061187;28;20209;-46
2022/06/05 10:52:11;;;;;;;2.78;2.53;;;22.30;93.60;;;;;;5065305;28;20190;-50
2022/06/05 10:54:45;;;;;;;2.35;2.25;;;22.40;93.60;;;;;;5048841;28;20191;-48
2022/06/05 10:57:19;;;;;;;2.58;2.38;;;22.40;93.40;;;;;;5048418;28;20199;-47
2022/06/05 10:59:57;;;;;;;2.47;2.27;;;22.50;93.20;;;;;;5058518;28;20222;-48
2022/06/05 11:02:35;;;;;;;2.70;2.50;;;22.60;92.30;;;;;;5041305;28;20199;-46
2022/06/05 11:05:26;;;;;;;2.42;2.10;;;22.70;91.90;;;;;;5049100;28;20206;-45
2022/06/05 11:08:00;;;;;;;2.47;2.33;;;22.60;91.90;;;;;;5031122;28;20230;-50
2022/06/05 11:13:42;;;;;;;3.47;2.17;;;22.50;91.70;;;;;;5046639;28;20233;-50
2022/06/05 11:16:29;;;;;;;2.17;2.08;;;22.50;91.70;;;;;;5048820;28;20199;-48
2022/06/05 11:19:14;;;;;;;2.47;2.28;;;22.50;91.20;;;;;;5052210;28;20219;-49
2022/06/05 11:21:43;;;;;;;2.38;2.22;;;22.50;90.50;;;;;;5044829;28;20204;-45
2022/06/05 11:24:22;;;;;;;1.95;1.83;;;22.50;90.60;;;;;;5036129;28;20199;-45
2022/06/05 11:26:57;;;;;;;2.10;1.98;;;22.50;90.80;;;;;;5048702;28;20199;-44
2022/06/05 11:29:29;;;;;;;2.45;2.10;;;22.60;90.20;;;;;;5048863;28;20328;-46
2022/06/05 11:32:15;;;;;;;2.22;1.70;;;22.70;90.10;;;;;;5049543;28;20194;-48
2022/06/05 11:34:49;;;;;;;2.17;2.08;;;22.80;87.90;;;;;;5047284;28;20198;-46
2022/06/05 11:37:56;;;;;;;2.75;2.17;;;22.80;89.10;;;;;;5053975;28;20624;-45
2022/06/05 11:40:35;;;;;;;1.90;1.80;;;22.90;90.30;;;;;;5030896;28;20235;-44
2022/06/05 11:43:16;;;;;;;1.95;1.85;;;23.10;89.00;;;;;;5046129;28;20316;-46
2022/06/05 11:45:51;;;;;;;2.00;1.90;;;23.20;88.30;;;;;;5040372;28;20212;-49
2022/06/05 11:48:27;;;;;;;1.73;1.63;;;23.20;87.60;;;;;;5052937;28;20711;-46
2022/06/05 11:51:02;;;;;;;2.35;1.63;;;23.20;88.00;;;;;;5040779;28;20205;-45
2022/06/05 11:53:38;;;;;;;1.70;1.60;;;23.20;87.40;;;;;;5047423;28;20286;-47
2022/06/05 11:56:25;;;;;;;2.40;1.75;;;23.40;82.30;;;;;;5038471;28;20201;-45
2022/06/05 11:58:59;;;;;;;2.15;1.80;;;23.40;81.90;;;;;;5042021;28;20225;-48
2022/06/05 12:01:31;;;;;;;1.60;1.50;;;23.50;83.50;;;;;;5048960;28;20238;-46
2022/06/05 12:04:11;;;;;;;1.40;1.30;;;23.70;80.00;;;;;;5042108;28;20199;-50
2022/06/05 12:06:42;;;;;;;1.77;1.50;;;23.80;80.90;;;;;;5050790;28;20206;-46
2022/06/05 12:09:13;;;;;;;1.50;1.40;;;23.80;76.60;;;;;;5052112;28;20341;-49
2022/06/05 12:11:46;;;;;;;1.50;1.40;;;23.90;77.20;;;;;;5039228;28;20198;-50
2022/06/05 12:14:21;;;;;;;1.92;1.35;;;24.10;75.10;;;;;;5052309;28;20198;-50
2022/06/05 12:16:52;;;;;;;1.83;1.13;;;24.20;72.40;;;;;;5042224;28;20198;-47
2022/06/05 12:19:35;;;;;;;1.60;1.50;;;24.20;72.20;;;;;;5044151;28;20215;-46
2022/06/05 12:22:11;;;;;;;1.30;1.30;;;24.30;73.20;;;;;;5050445;28;20201;-48
2022/06/05 12:24:46;;;;;;;1.55;1.25;;;24.40;70.50;;;;;;5043099;28;20195;-49
2022/06/05 12:27:16;;;;;;;1.80;1.70;;;24.50;71.50;;;;;;5041306;28;20209;-46
2022/06/05 12:29:47;;;;;;;2.13;1.50;;;24.50;66.90;;;;;;5045975;28;20305;-46
2022/06/05 12:32:24;;;;;;;1.15;1.13;;;24.60;65.70;;;;;;5048525;28;20261;-46
2022/06/05 12:35:01;;;;;;;1.95;1.48;;;24.70;63.80;;;;;;5046664;28;20241;-46
2022/06/05 12:37:31;;;;;;;1.48;1.38;;;24.70;62.10;;;;;;5050825;28;20207;-45
2022/06/05 12:39:58;;;;;;;1.50;1.40;;;24.80;64.20;;;;;;5055824;28;20218;-47
2022/06/05 12:42:37;;;;;;;1.27;1.27;;;24.70;61.60;;;;;;5047064;28;20211;-46
2022/06/05 12:45:15;;;;;;;1.00;1.00;;;24.60;61.20;;;;;;5055091;28;20206;-45
2022/06/05 12:48:01;;;;;;;1.17;1.17;;;24.70;61.70;;;;;;5047867;28;20201;-48
2022/06/05 12:50:45;;;;;;;1.45;1.35;;;24.80;60.60;;;;;;5060189;28;20222;-49
2022/06/05 12:53:24;;;;;;;1.50;1.40;;;24.90;60.00;;;;;;5054126;28;20282;-46
2022/06/05 12:55:58;;;;;;;1.88;1.23;;;25.10;61.60;;;;;;5051679;28;20210;-50
2022/06/05 12:58:33;;;;;;;1.08;1.08;;;25.30;62.50;;;;;;5047745;28;20217;-48
2022/06/05 13:01:03;;;;;;;1.20;1.08;;;25.40;62.20;;;;;;5043320;28;20279;-50
2022/06/05 13:03:37;;;;;;;1.70;1.60;;;25.70;62.50;;;;;;5049395;28;20544;-52
2022/06/05 13:06:11;;;;;;;1.40;1.40;;;25.70;61.30;;;;;;5053999;28;20194;-50
2022/06/05 13:08:42;;;;;;;2.05;1.60;;;25.90;59.20;;;;;;5051590;28;20210;-47
2022/06/05 13:11:16;;;;;;;1.40;1.30;;;26.00;58.10;;;;;;5057340;28;20207;-48
2022/06/05 13:13:51;;;;;;;1.50;1.40;;;25.90;57.40;;;;;;5040389;28;20199;-50
2022/06/05 13:16:29;;;;;;;1.30;1.23;;;26.00;57.70;;;;;;5053029;28;20698;-49
2022/06/05 13:19:20;;;;;;;1.30;1.30;;;26.10;55.80;;;;;;5045052;28;20214;-49
2022/06/05 13:22:00;;;;;;;1.58;1.40;;;26.20;58.80;;;;;;5053714;28;20205;-48
2022/06/05 13:24:34;;;;;;;1.88;1.40;;;26.50;58.20;;;;;;5050844;28;20183;-47
2022/06/05 13:27:15;;;;;;;2.05;1.17;;;26.70;59.00;;;;;;5044383;28;20251;-49